METAR Data
IDs: Format: Raw Decoded Include TAF

Data at: 1440 UTC 25 Jan 2020

VTBD 251430Z 19013KT 9999 FEW020 SCT080 28/23 Q1011 NOSIG
VTBD 251400Z 19012KT 160V220 9999 FEW020 SCT080 28/23 Q1011 NOSIG
VTBD 251330Z 19010KT 9999 FEW020 SCT080 28/23 Q1010 NOSIG
VTBD 251300Z 19013KT 9999 FEW020 SCT080 28/23 Q1010 NOSIG
VTBD 251230Z 19014KT 9999 FEW020 29/23 Q1009 NOSIG
VTBD 251200Z 19013KT 9999 FEW020 29/22 Q1009 NOSIG
VTBD 251130Z 19013KT 9999 FEW020 29/22 Q1009 NOSIG
VTBD 251100Z 19011KT 9999 FEW020 30/22 Q1009 NOSIG
VTBD 251030Z 19011KT 9999 FEW020 30/23 Q1009 NOSIG
VTBD 251000Z 19010KT 9999 FEW020 31/23 Q1008 NOSIG
VTBD 250930Z 19012KT 9999 FEW020 31/22 Q1008 NOSIG
VTBD 250900Z 19011KT 160V220 9999 FEW020 32/23 Q1008 NOSIG
VTBD 250830Z 20013KT 9999 FEW020 32/23 Q1008 NOSIG
VTBD 250800Z 20011KT 170V230 9999 FEW020 33/24 Q1008 NOSIG
VTBD 250730Z 21013KT 170V240 9999 SCT020 32/23 Q1009 NOSIG
VTBD 250700Z 20012KT 9999 SCT020 33/23 Q1009 NOSIG
VTBD 250630Z 21013KT 9999 FEW020 SCT030 32/24 Q1010 NOSIG
VTBD 250600Z 21012KT 9999 FEW020 SCT030 33/23 Q1010 NOSIG
VTBD 250530Z 18012KT 160V220 9999 FEW020 SCT030 32/23 Q1011 NOSIG
VTBD 250500Z 20011KT 170V230 9999 FEW020 SCT030 33/23 Q1011 NOSIG
VTBD 250430Z 21013KT 9999 FEW020 SCT030 32/23 Q1012 NOSIG
VTBD 250400Z 21011KT 9999 FEW020 SCT030 31/24 Q1012 NOSIG
VTBD 250330Z 20010KT 160V220 9999 FEW020 SCT030 31/24 Q1012 NOSIG
VTBD 250300Z 19010KT 9999 FEW020 SCT030 31/24 Q1012 NOSIG
VTBD 250230Z 20011KT 9999 FEW020 SCT030 30/25 Q1012 NOSIG
VTBD 250200Z 19012KT 9999 FEW020 29/25 Q1012 NOSIG
VTBD 250130Z 19007KT 160V220 9999 FEW020 29/25 Q1012 NOSIG
VTBD 250100Z 17005KT 9000 FEW020 28/25 Q1011 NOSIG
VTBD 250030Z 17004KT 140V200 9000 FEW020 27/25 Q1011 NOSIG
VTBD 250000Z 16004KT 9000 FEW020 27/24 Q1010 NOSIG
VTBD 242330Z 16005KT 9000 FEW020 27/25 Q1010 NOSIG
VTBD 242300Z 17004KT 9000 FEW020 27/25 Q1010 NOSIG
VTBD 242230Z 16005KT 9000 FEW020 27/24 Q1010 NOSIG
VTBD 242200Z 17004KT 9999 FEW020 27/25 Q1010 NOSIG
VTBD 242130Z 17005KT 9999 FEW020 27/25 Q1010 NOSIG
VTBD 242100Z 17005KT 150V210 9999 FEW020 27/25 Q1010 NOSIG
VTBD 242030Z 18005KT 9999 FEW020 27/25 Q1010 NOSIG
VTBD 242000Z 19008KT 9999 FEW020 27/25 Q1010 NOSIG
VTBD 241930Z 19007KT 9999 FEW020 27/25 Q1010 NOSIG
VTBD 241900Z 20009KT 160V220 9999 FEW020 28/25 Q1011 NOSIG
VTBD 241830Z 19008KT 9999 FEW020 28/25 Q1011 NOSIG
VTBD 241800Z 20009KT 9999 FEW020 28/25 Q1011 NOSIG
VTBD 241730Z 19007KT 9999 FEW020 28/25 Q1011 NOSIG
VTBD 241700Z 19007KT 150V210 9999 FEW020 28/25 Q1012 NOSIG
VTBD 241630Z 19008KT 9999 FEW020 28/25 Q1012 NOSIG
VTBD 241600Z 20009KT 9999 FEW020 28/25 Q1012 NOSIG
VTBD 241530Z 19010KT 9999 FEW020 28/25 Q1012 NOSIG
VTBD 241500Z 19011KT 9999 FEW020 28/25 Q1012 NOSIG
VTBD 241430Z 18010KT 9999 FEW020 29/25 Q1012 NOSIG
VTBD 241400Z 19011KT 9999 FEW020 29/25 Q1011 NOSIG
VTBD 241330Z 20009KT 9999 FEW020 29/24 Q1011 NOSIG
VTBD 241300Z 18007KT 150V210 9999 FEW020 29/24 Q1011 NOSIG
VTBD 241230Z 19008KT 9999 FEW020 29/24 Q1010 NOSIG
VTBD 241200Z 17007KT 150V210 9999 FEW020 29/24 Q1010 NOSIG
VTBD 241130Z 19009KT 150V210 9999 FEW020 30/24 Q1010 NOSIG
VTBD 241100Z 18011KT 150V210 9999 FEW020 31/24 Q1010 NOSIG
VTBD 241030Z 19009KT 9999 FEW020 32/24 Q1009 NOSIG
VTBD 241000Z 18009KT 9999 FEW020 32/23 Q1009 NOSIG
VTBD 240930Z 20008KT 160V220 9999 FEW020 33/23 Q1009 NOSIG
VTBD 240900Z 18009KT 150V210 9999 FEW020 34/23 Q1009 NOSIG
VTBD 240830Z 21009KT 180V240 9999 FEW020 34/23 Q1009 NOSIG
VTBD 240800Z 20009KT 170V240 9999 FEW020 34/23 Q1009 NOSIG
VTBD 240730Z 20010KT 150V230 9999 FEW020 34/23 Q1010 NOSIG
VTBD 240700Z 20008KT 140V230 9999 FEW020 34/22 Q1010 NOSIG
VTBD 240630Z 20008KT 150V220 9000 FEW020 SCT040 34/23 Q1011 NOSIG
VTBD 240600Z 19007KT 160V230 9000 FEW020 SCT040 33/23 Q1011 NOSIG
VTBD 240530Z 19008KT 140V220 9000 FEW020 SCT040 34/23 Q1012 NOSIG
VTBD 240500Z 17008KT 130V230 9000 FEW020 SCT040 33/23 Q1013 NOSIG
VTBD 240430Z 16008KT 140V230 9000 FEW020 SCT035 33/24 Q1013 NOSIG
VTBD 240400Z 16008KT 110V200 9000 FEW020 SCT035 32/23 Q1014 NOSIG
VTBD 240330Z 16008KT 130V190 8000 FEW020 32/25 Q1014 NOSIG
VTBD 240300Z 18008KT 130V220 8000 FEW020 31/25 Q1014 NOSIG